createdAt,value
2023-03-26T00:08:34.586Z,78.24
2023-03-26T00:23:54.518Z,78.28
2023-03-26T00:38:59.669Z,78.06
2023-03-26T01:09:36.457Z,78.00
2023-03-26T01:24:42.142Z,77.65
2023-03-26T01:40:27.111Z,78.18
2023-03-26T01:56:06.087Z,78.53
2023-03-26T02:11:16.648Z,79.19
2023-03-26T02:26:21.602Z,78.58
2023-03-26T02:56:44.373Z,78.34
2023-03-26T03:11:49.086Z,78.13
2023-03-26T03:26:58.279Z,78.27
2023-03-26T03:57:22.680Z,78.25
2023-03-26T04:12:40.833Z,77.91
2023-03-26T04:27:46.512Z,77.97
2023-03-26T04:42:51.376Z,77.55
2023-03-26T04:58:05.671Z,77.60
2023-03-26T05:13:25.212Z,77.51
2023-03-26T05:28:29.638Z,77.38
2023-03-26T05:43:49.337Z,77.57
2023-03-26T05:58:54.129Z,77.33
2023-03-26T06:13:59.126Z,77.10
2023-03-26T06:44:49.305Z,76.98
2023-03-26T06:59:54.571Z,76.59
2023-03-26T07:15:02.845Z,77.04
2023-03-26T07:30:26.966Z,76.64
2023-03-26T07:49:49.620Z,75.62
2023-03-26T08:05:18.982Z,75.10
2023-03-26T08:20:36.855Z,75.06
2023-03-26T08:51:41.198Z,73.80
2023-03-26T09:07:08.140Z,73.82
2023-03-26T10:23:29.662Z,69.82
2023-03-26T10:39:40.151Z,69.50
2023-03-26T10:55:12.420Z,71.94
2023-03-26T11:11:10.084Z,74.12
2023-03-26T11:27:14.936Z,73.70
2023-03-26T11:42:25.121Z,73.02
2023-03-26T11:57:35.870Z,70.60
2023-03-26T12:12:42.966Z,67.78
2023-03-26T12:28:17.845Z,67.36
2023-03-26T12:44:52.874Z,67.99
2023-03-26T13:00:11.781Z,70.59
2023-03-26T13:15:52.596Z,70.98
2023-03-26T13:31:22.975Z,69.82
2023-03-26T13:46:37.235Z,67.95
2023-03-26T14:01:56.450Z,66.82
2023-03-26T14:17:10.191Z,66.60
2023-03-26T14:33:28.678Z,66.97
2023-03-26T14:49:41.215Z,65.72
2023-03-26T15:05:46.849Z,65.39
2023-03-26T15:21:44.550Z,64.57
2023-03-26T15:37:19.482Z,65.41
2023-03-26T15:52:57.824Z,65.61
2023-03-26T16:08:22.755Z,65.75
2023-03-26T16:23:47.558Z,65.69
2023-03-26T16:39:12.059Z,64.78
2023-03-26T16:54:33.988Z,65.02
2023-03-26T17:10:10.467Z,65.81
2023-03-26T17:25:37.785Z,66.66
2023-03-26T17:41:01.808Z,67.00
2023-03-26T17:56:19.368Z,67.21
2023-03-26T18:13:27.016Z,67.44
2023-03-26T18:44:37.301Z,68.98
2023-03-26T18:59:45.692Z,69.43
2023-03-26T19:15:17.736Z,69.73
2023-03-26T19:30:33.983Z,70.26
2023-03-26T20:01:13.737Z,70.30
2023-03-26T20:16:35.234Z,70.58
2023-03-26T20:31:42.289Z,70.83
2023-03-26T20:46:50.102Z,71.01
2023-03-26T21:01:57.492Z,71.29
2023-03-26T21:17:03.303Z,71.41
2023-03-26T21:32:10.670Z,72.38
2023-03-26T21:47:15.882Z,72.89
2023-03-26T22:03:13.538Z,74.83
2023-03-26T22:18:21.832Z,74.68
2023-03-26T22:33:26.172Z,74.52
2023-03-26T22:48:31.275Z,74.42
2023-03-26T23:03:38.097Z,74.56
2023-03-26T23:18:43.517Z,74.81
2023-03-26T23:33:47.902Z,75.07
2023-03-26T23:49:05.928Z,74.75
